createdAt,value
2023-01-19T01:20:28.191Z,5.50
2023-01-19T01:22:55.877Z,5.55
2023-01-19T01:25:24.069Z,5.52
2023-01-19T01:27:51.437Z,5.47
2023-01-19T01:30:18.929Z,5.43
2023-01-19T01:32:46.105Z,5.39
2023-01-19T01:35:13.580Z,5.36
2023-01-19T01:37:40.900Z,5.32
2023-01-19T01:40:08.794Z,5.29
2023-01-19T01:42:35.980Z,5.25
2023-01-19T01:45:06.440Z,5.22
2023-01-19T01:47:37.220Z,5.20
2023-01-19T01:50:14.258Z,5.18
2023-01-19T01:53:07.656Z,5.19
2023-01-19T01:55:33.160Z,5.19
2023-01-19T01:58:04.972Z,5.20
2023-01-19T02:00:52.348Z,5.22
2023-01-19T02:03:19.657Z,5.24
2023-01-19T02:05:46.801Z,5.24
2023-01-19T02:08:43.676Z,5.25
2023-01-19T02:11:29.530Z,5.28
2023-01-19T02:13:57.511Z,5.30
2023-01-19T02:16:24.760Z,5.32
2023-01-19T02:18:52.661Z,5.37
2023-01-19T02:21:53.078Z,5.42
2023-01-19T02:24:20.446Z,5.45
2023-01-19T02:26:48.142Z,5.46
2023-01-19T02:29:20.310Z,5.48
2023-01-19T02:31:48.023Z,5.49
2023-01-19T02:34:17.019Z,5.48
2023-01-19T02:37:22.826Z,5.47
2023-01-19T02:39:52.492Z,5.48
2023-01-19T02:42:21.681Z,5.49
2023-01-19T02:44:49.538Z,5.51
2023-01-19T02:47:16.662Z,5.50
2023-01-19T02:49:43.777Z,5.49
2023-01-19T02:52:18.044Z,5.51
2023-01-19T02:55:00.428Z,5.52
2023-01-19T02:57:36.227Z,5.51
2023-01-19T03:00:14.528Z,5.49
2023-01-19T03:02:47.958Z,5.48
2023-01-19T03:05:24.465Z,5.46
2023-01-19T03:08:16.641Z,5.45
2023-01-19T03:11:01.640Z,5.44
2023-01-19T03:13:39.649Z,5.39
2023-01-19T03:16:22.908Z,5.34
2023-01-19T03:18:54.373Z,5.31
2023-01-19T03:21:24.425Z,5.28
2023-01-19T03:23:51.655Z,5.27
2023-01-19T03:26:23.134Z,5.25
2023-01-19T03:28:50.747Z,5.23
2023-01-19T03:31:23.475Z,5.21
2023-01-19T03:33:52.618Z,5.17
2023-01-19T03:37:05.146Z,5.15
2023-01-19T03:39:32.942Z,5.12
2023-01-19T03:42:05.466Z,5.12
2023-01-19T03:44:34.594Z,5.13
2023-01-19T03:47:01.706Z,5.14
2023-01-19T03:49:31.638Z,5.15
2023-01-19T03:51:59.283Z,5.15
2023-01-19T03:54:26.985Z,5.15
2023-01-19T03:56:54.411Z,5.13
2023-01-19T03:59:22.242Z,5.10
2023-01-19T04:01:49.553Z,5.07
2023-01-19T04:04:17.101Z,5.04
2023-01-19T04:06:44.294Z,5.00
2023-01-19T04:09:11.574Z,4.97
2023-01-19T04:11:38.834Z,4.94
2023-01-19T04:14:06.236Z,4.89
2023-01-19T04:16:33.717Z,4.86
2023-01-19T04:19:00.896Z,4.82
2023-01-19T04:21:28.067Z,4.80
2023-01-19T04:23:56.340Z,4.79
2023-01-19T04:26:24.333Z,4.79
2023-01-19T04:28:52.880Z,4.80
2023-01-19T04:31:20.771Z,4.81
2023-01-19T04:33:48.171Z,4.82
2023-01-19T04:36:15.578Z,4.84
2023-01-19T04:38:43.422Z,4.86
2023-01-19T04:41:11.190Z,4.88
2023-01-19T04:43:38.685Z,4.91
2023-01-19T04:46:07.056Z,4.95
2023-01-19T04:48:35.708Z,5.01
2023-01-19T04:51:03.465Z,5.06
2023-01-19T04:53:31.237Z,5.10
2023-01-19T04:56:00.157Z,5.15
2023-01-19T04:58:27.728Z,5.18
2023-01-19T05:00:55.366Z,5.21
2023-01-19T05:03:24.372Z,5.27
2023-01-19T05:05:52.860Z,5.33
2023-01-19T05:08:20.472Z,5.38
2023-01-19T05:10:50.726Z,5.42
2023-01-19T05:13:18.725Z,5.48
2023-01-19T05:15:46.012Z,5.55
2023-01-19T05:18:13.581Z,5.59
2023-01-19T05:20:41.418Z,5.65
2023-01-19T05:23:08.979Z,5.68
2023-01-19T05:25:36.263Z,5.71
2023-01-19T05:28:03.849Z,5.75
2023-01-19T05:30:31.069Z,5.78
2023-01-19T05:32:58.877Z,5.80
2023-01-19T05:35:35.723Z,5.80
2023-01-19T05:38:04.232Z,5.81
2023-01-19T05:40:32.042Z,5.79
2023-01-19T05:43:01.666Z,5.79
2023-01-19T05:45:29.385Z,5.78
2023-01-19T05:47:56.765Z,5.77
2023-01-19T05:50:23.965Z,5.79
2023-01-19T05:52:53.684Z,5.80
2023-01-19T05:55:21.437Z,5.82
2023-01-19T05:57:48.618Z,5.82
2023-01-19T06:00:16.328Z,5.81
2023-01-19T06:02:43.882Z,5.80
2023-01-19T06:05:11.777Z,5.79
2023-01-19T06:07:39.378Z,5.79
2023-01-19T06:10:07.319Z,5.80
2023-01-19T06:12:34.909Z,5.80
2023-01-19T06:15:02.348Z,5.81
2023-01-19T06:17:32.473Z,5.84
2023-01-19T06:19:59.767Z,5.86
2023-01-19T06:22:26.986Z,5.90
2023-01-19T06:24:54.692Z,5.92
2023-01-19T06:27:21.813Z,5.95
2023-01-19T06:29:49.075Z,5.96
2023-01-19T06:32:16.648Z,5.96
2023-01-19T06:34:44.116Z,5.97
2023-01-19T06:37:11.994Z,5.98
2023-01-19T06:39:41.413Z,5.99
2023-01-19T06:42:09.065Z,6.01
2023-01-19T06:44:36.656Z,5.99
2023-01-19T06:47:15.553Z,5.96
2023-01-19T06:49:43.263Z,5.95
2023-01-19T06:52:16.204Z,5.92
2023-01-19T06:54:45.281Z,5.91
2023-01-19T06:57:14.751Z,5.89
2023-01-19T06:59:41.939Z,5.89
2023-01-19T07:02:26.370Z,5.90
2023-01-19T07:04:56.031Z,5.93
2023-01-19T07:07:24.032Z,5.96
2023-01-19T07:09:53.840Z,5.99
2023-01-19T07:12:22.304Z,6.01
2023-01-19T07:14:49.982Z,6.01
2023-01-19T07:17:17.143Z,6.03
2023-01-19T07:19:44.500Z,6.04
2023-01-19T07:22:11.745Z,6.04
2023-01-19T07:24:39.083Z,6.03
2023-01-19T07:27:06.243Z,6.04
2023-01-19T07:29:35.595Z,6.08
2023-01-19T07:32:03.009Z,6.16
2023-01-19T07:34:30.318Z,6.24
2023-01-19T12:20:31.189Z,10.50
2023-01-19T12:23:13.444Z,10.48
2023-01-19T12:26:00.258Z,10.40
2023-01-19T12:28:32.686Z,10.39
2023-01-19T12:31:00.669Z,10.39
2023-01-19T12:33:37.939Z,10.39
2023-01-19T12:36:05.389Z,10.37
2023-01-19T12:38:52.963Z,10.31
2023-01-19T12:41:24.208Z,10.21
2023-01-19T12:44:10.117Z,10.10
2023-01-19T12:46:37.455Z,10.02
2023-01-19T12:49:06.610Z,9.93
2023-01-19T12:51:33.913Z,9.84
2023-01-19T12:54:01.395Z,9.73
2023-01-19T12:56:33.264Z,9.61
2023-01-19T12:59:00.723Z,9.50
2023-01-19T13:01:27.988Z,9.44
2023-01-19T13:03:59.897Z,9.44
2023-01-19T13:07:10.793Z,9.45
2023-01-19T13:09:38.681Z,9.48
2023-01-19T13:12:32.325Z,9.50
2023-01-19T13:15:28.496Z,9.53
2023-01-19T13:17:55.657Z,9.51
2023-01-19T13:21:01.638Z,9.47
2023-01-19T13:23:42.121Z,9.38
2023-01-19T13:26:13.160Z,9.30
2023-01-19T13:28:44.752Z,9.23
2023-01-19T13:31:12.487Z,9.17
2023-01-19T13:33:47.435Z,9.12
2023-01-19T13:36:30.542Z,9.06
2023-01-19T13:38:59.518Z,9.01
2023-01-19T13:41:29.408Z,8.95
2023-01-19T13:44:13.564Z,8.89
2023-01-19T13:46:40.865Z,8.80
2023-01-19T13:49:20.125Z,8.71
2023-01-19T13:52:06.342Z,8.63
2023-01-19T13:54:33.490Z,8.53
2023-01-19T13:57:00.778Z,8.46
2023-01-19T13:59:27.911Z,8.38
2023-01-19T14:01:55.072Z,8.32
2023-01-19T14:04:32.442Z,8.24
2023-01-19T14:07:02.871Z,8.15
2023-01-19T14:09:30.250Z,8.09
2023-01-19T14:12:10.788Z,8.02
2023-01-19T14:14:38.264Z,7.94
2023-01-19T14:17:05.528Z,7.88
2023-01-19T14:19:47.992Z,7.82
2023-01-19T14:22:15.261Z,7.77
2023-01-19T14:24:42.474Z,7.71
2023-01-19T14:27:19.395Z,7.65
2023-01-19T14:29:47.731Z,7.60
2023-01-19T14:32:16.864Z,7.56
2023-01-19T14:34:48.273Z,7.51
2023-01-19T14:37:28.175Z,7.46
2023-01-19T14:40:01.504Z,7.42
2023-01-19T14:43:08.916Z,7.37
2023-01-19T14:45:41.528Z,7.33
2023-01-19T14:48:18.180Z,7.32
2023-01-19T14:50:57.620Z,7.29
2023-01-19T14:53:30.090Z,7.26
2023-01-19T14:56:02.224Z,7.21
2023-01-19T14:58:31.821Z,7.16
2023-01-19T15:00:59.180Z,7.14
2023-01-19T15:03:42.678Z,7.11
2023-01-19T15:06:16.340Z,7.08
2023-01-19T15:08:43.542Z,7.03
2023-01-19T15:11:23.361Z,7.00
2023-01-19T15:13:50.778Z,6.96
2023-01-19T15:16:18.128Z,6.95
2023-01-19T15:18:45.269Z,6.91
2023-01-19T15:21:16.295Z,6.88
2023-01-19T15:23:43.563Z,6.84
2023-01-19T15:26:12.263Z,6.80
2023-01-19T15:28:39.406Z,6.75
2023-01-19T15:31:06.527Z,6.69
2023-01-19T15:33:34.718Z,6.63
2023-01-19T15:36:02.047Z,6.56
2023-01-19T15:38:29.322Z,6.51
2023-01-19T15:40:56.373Z,6.46
2023-01-19T15:43:23.569Z,6.41
2023-01-19T15:46:01.097Z,6.37
2023-01-19T15:48:28.448Z,6.34
2023-01-19T15:50:55.701Z,6.29
2023-01-19T15:53:24.350Z,6.25
2023-01-19T15:55:52.596Z,6.22
2023-01-19T15:58:20.830Z,6.19
2023-01-19T16:00:58.245Z,6.16
2023-01-19T16:03:25.731Z,6.15
2023-01-19T16:05:52.886Z,6.12
2023-01-19T19:18:55.158Z,4.86
2023-01-19T19:21:24.121Z,4.87
2023-01-19T19:23:55.309Z,4.84
2023-01-19T19:26:22.507Z,4.83
2023-01-19T19:28:49.596Z,4.80
2023-01-19T19:31:20.810Z,4.78
2023-01-19T19:33:48.916Z,4.76
2023-01-19T19:36:16.215Z,4.73
2023-01-19T19:38:44.697Z,4.70
2023-01-19T19:41:13.007Z,4.67
2023-01-19T19:43:40.115Z,4.65
2023-01-19T19:46:09.715Z,4.63
2023-01-19T19:48:39.107Z,4.65
2023-01-19T19:51:18.411Z,4.67
2023-01-19T19:53:48.421Z,4.67
2023-01-19T19:56:19.966Z,4.67
2023-01-19T19:58:47.262Z,4.67
2023-01-19T20:01:27.654Z,4.67
2023-01-19T20:04:00.228Z,4.69
2023-01-19T20:06:27.482Z,4.69
2023-01-19T20:08:55.567Z,4.72
2023-01-19T20:11:24.421Z,4.74
2023-01-19T20:13:51.584Z,4.77
2023-01-19T20:16:20.307Z,4.80
2023-01-19T20:18:50.966Z,4.81
2023-01-19T20:21:19.954Z,4.80
2023-01-19T20:23:47.631Z,4.81
2023-01-19T20:26:15.666Z,4.80
2023-01-19T20:28:42.840Z,4.79
2023-01-19T20:31:10.771Z,4.78
2023-01-19T20:33:37.848Z,4.76
2023-01-19T20:36:05.281Z,4.74
2023-01-19T20:38:32.447Z,4.74
2023-01-19T20:40:59.675Z,4.72
2023-01-19T20:43:26.752Z,4.70
2023-01-19T20:45:53.994Z,4.68
2023-01-19T20:48:21.166Z,4.66
2023-01-19T20:50:48.252Z,4.64
2023-01-19T20:53:15.345Z,4.63
2023-01-19T20:55:42.593Z,4.60
2023-01-19T20:58:09.788Z,4.56
2023-01-19T21:00:36.852Z,4.52
2023-01-19T21:03:04.463Z,4.48
2023-01-19T21:05:31.613Z,4.45
2023-01-19T21:07:58.834Z,4.43
2023-01-19T21:10:26.606Z,4.41
2023-01-19T21:12:53.677Z,4.39
2023-01-19T21:15:20.770Z,4.39
2023-01-19T21:17:47.877Z,4.38
2023-01-19T21:20:15.026Z,4.37
2023-01-19T21:22:42.110Z,4.37
2023-01-19T21:25:09.602Z,4.37
2023-01-19T21:27:36.945Z,4.37
2023-01-19T21:30:06.151Z,4.37
2023-01-19T21:32:33.205Z,4.38
2023-01-19T21:35:00.298Z,4.38
2023-01-19T21:37:30.602Z,4.38
2023-01-19T21:39:57.781Z,4.38
2023-01-19T21:42:24.912Z,4.38
2023-01-19T21:44:52.146Z,4.38
2023-01-19T21:47:19.244Z,4.39
2023-01-19T21:49:46.686Z,4.39
2023-01-19T21:52:13.779Z,4.38
2023-01-19T21:54:40.960Z,4.38
2023-01-19T21:57:08.019Z,4.36
2023-01-19T21:59:35.218Z,4.34
2023-01-19T22:02:02.550Z,4.32
2023-01-19T22:04:29.989Z,4.31
2023-01-19T22:06:57.054Z,4.29
2023-01-19T22:09:24.303Z,4.26
2023-01-19T22:11:51.419Z,4.24
2023-01-19T22:14:18.677Z,4.22
2023-01-19T22:16:45.823Z,4.20
2023-01-19T22:19:14.561Z,4.17
2023-01-19T22:21:41.807Z,4.15
2023-01-19T22:24:09.077Z,4.14
2023-01-19T22:26:37.140Z,4.13
2023-01-19T22:29:04.874Z,4.12
2023-01-19T22:31:32.341Z,4.09
2023-01-19T22:33:59.730Z,4.06
2023-01-19T22:36:28.900Z,4.03
2023-01-19T22:39:00.582Z,4.00
2023-01-19T22:41:35.372Z,3.98
2023-01-19T22:44:04.515Z,3.96
2023-01-19T22:46:32.838Z,3.94
2023-01-19T22:49:00.001Z,3.93
2023-01-19T22:51:28.623Z,3.93
2023-01-19T22:53:55.782Z,3.94
2023-01-19T22:56:24.471Z,3.95
2023-01-19T22:58:51.710Z,3.97
2023-01-19T23:01:23.478Z,3.97
2023-01-19T23:03:50.746Z,3.96
2023-01-19T23:06:19.338Z,3.95
2023-01-19T23:08:46.563Z,3.93
2023-01-19T23:11:15.564Z,3.91
2023-01-19T23:13:42.816Z,3.89
2023-01-19T23:16:10.163Z,3.88
2023-01-19T23:18:37.348Z,3.87
2023-01-19T23:21:15.826Z,3.86
2023-01-19T23:23:43.332Z,3.86
2023-01-19T23:26:15.181Z,3.84
2023-01-19T23:28:42.354Z,3.82
2023-01-19T23:31:22.619Z,3.79
2023-01-19T23:33:50.640Z,3.76
2023-01-19T23:36:19.454Z,3.74
2023-01-19T23:38:55.293Z,3.74
2023-01-19T23:41:22.805Z,3.74
2023-01-19T23:43:50.070Z,3.76
2023-01-19T23:46:17.438Z,3.77
2023-01-19T23:48:44.725Z,3.78
2023-01-19T23:51:14.023Z,3.79
2023-01-19T23:53:41.394Z,3.79
2023-01-19T23:56:25.649Z,3.80
2023-01-19T23:58:57.787Z,3.80
